Time;durP1;ratioP1;P1;durP2;ratioP2;P2;SDS_P1;SDS_P2;PMS_P1;PMS_P2;Temp;Humidity;BMP_temperature;BMP_pressure;BME280_temperature;BME280_humidity;BME280_pressure;Samples;Min_cycle;Max_cycle;Signal;HPM_P1;HPM_P2
2023/08/04 00:00:29;;;;;;;2.20;0.90;;;;;;;16.22;100.00;95388.13;1018501;29;20134;-77
2023/08/04 00:00:59;;;;;;;2.70;0.80;;;;;;;16.18;100.00;95387.19;1018923;29;20035;-77
2023/08/04 00:01:30;;;;;;;1.40;0.85;;;;;;;16.15;100.00;95385.91;1018971;29;20034;-76
2023/08/04 00:02:01;;;;;;;1.80;0.75;;;;;;;16.20;100.00;95400.91;1015126;29;20039;-77
2023/08/04 00:02:31;;;;;;;1.48;0.85;;;;;;;16.09;100.00;95373.91;1023004;29;20047;-75
2023/08/04 00:03:02;;;;;;;2.20;0.98;;;;;;;16.05;100.00;95378.25;1023078;29;20059;-75
2023/08/04 00:03:32;;;;;;;1.55;0.70;;;;;;;16.12;100.00;95391.81;1014948;29;20084;-76
2023/08/04 00:04:03;;;;;;;1.90;0.82;;;;;;;16.14;100.00;95394.94;1014897;29;20028;-77
2023/08/04 00:04:33;;;;;;;2.08;0.65;;;;;;;16.14;100.00;95391.53;1019061;29;20035;-75
2023/08/04 00:05:04;;;;;;;2.90;0.60;;;;;;;16.03;100.00;95373.28;1011437;29;20028;-77
2023/08/04 00:05:35;;;;;;;2.58;0.65;;;;;;;16.12;100.00;95394.47;1011492;29;20116;-76
2023/08/04 00:06:09;;;;;;;5.05;1.10;;;;;;;16.06;100.00;95393.03;1015219;29;20865;-76
2023/08/04 00:06:39;;;;;;;1.75;0.65;;;;;;;16.00;100.00;95376.53;1018997;29;20437;-76
2023/08/04 00:07:10;;;;;;;3.17;0.68;;;;;;;16.07;100.00;95391.97;1014999;29;20028;-75
2023/08/04 00:07:42;;;;;;;1.65;0.80;;;;;;;16.06;100.00;95395.69;1015739;29;20513;-79
2023/08/04 00:08:12;;;;;;;1.90;0.85;;;;;;;16.00;100.00;95387.13;1023077;29;20031;-75
2023/08/04 00:08:43;;;;;;;1.35;0.50;;;;;;;15.99;100.00;95384.75;1018932;28;20028;-77
2023/08/04 00:09:13;;;;;;;4.03;0.77;;;;;;;15.96;100.00;95380.88;1014880;29;20120;-77
2023/08/04 00:09:43;;;;;;;3.90;1.17;;;;;;;16.06;100.00;95389.63;1015297;29;20483;-76
2023/08/04 00:10:14;;;;;;;2.78;0.80;;;;;;;16.04;100.00;95400.53;1018931;29;20031;-76
2023/08/04 00:10:44;;;;;;;3.67;0.82;;;;;;;15.94;100.00;95383.03;1018656;29;20032;-75
2023/08/04 00:11:15;;;;;;;3.47;1.10;;;;;;;15.95;100.00;95383.81;1020205;28;20034;-78
2023/08/04 00:11:45;;;;;;;2.92;0.80;;;;;;;15.92;100.00;95384.44;1023147;29;20039;-78
2023/08/04 00:12:16;;;;;;;1.95;0.73;;;;;;;16.02;100.00;95394.75;1011298;29;20120;-74
2023/08/04 00:12:46;;;;;;;2.45;0.75;;;;;;;15.90;100.00;95370.72;1011363;29;20111;-78
2023/08/04 00:13:17;;;;;;;2.55;0.95;;;;;;;15.92;100.00;95379.13;1011347;29;20036;-77
2023/08/04 00:13:47;;;;;;;2.05;0.93;;;;;;;16.01;100.00;95398.47;1015319;29;20526;-78
2023/08/04 00:14:18;;;;;;;2.70;0.85;;;;;;;15.99;100.00;95393.47;1014951;29;20040;-76
2023/08/04 00:14:48;;;;;;;3.85;0.90;;;;;;;15.90;100.00;95382.09;1023230;29;20023;-75
2023/08/04 00:15:18;;;;;;;5.15;0.90;;;;;;;15.94;100.00;95392.84;1023089;28;20031;-74
2023/08/04 00:15:49;;;;;;;2.15;0.77;;;;;;;15.99;100.00;95398.78;1019172;29;20560;-76
2023/08/04 00:16:19;;;;;;;1.65;0.60;;;;;;;15.99;100.00;95400.63;1018855;29;20035;-76
2023/08/04 00:16:50;;;;;;;2.17;0.70;;;;;;;15.83;100.00;95381.75;1015348;29;20437;-77
2023/08/04 00:17:20;;;;;;;3.13;0.75;;;;;;;15.94;100.00;95401.56;1011382;29;20043;-74
2023/08/04 00:17:51;;;;;;;1.58;1.00;;;;;;;15.95;100.00;95395.19;1015172;29;20127;-75
2023/08/04 00:18:21;;;;;;;1.42;1.02;;;;;;;15.94;100.00;95404.22;1015204;29;20096;-76
2023/08/04 00:18:52;;;;;;;5.55;0.80;;;;;;;15.94;100.00;95398.13;1019049;29;20147;-76
2023/08/04 00:19:22;;;;;;;2.28;0.60;;;;;;;15.94;100.00;95398.91;1015066;29;20045;-76
2023/08/04 00:19:53;;;;;;;2.08;0.80;;;;;;;15.92;100.00;95395.78;1018845;29;20044;-76
2023/08/04 00:20:23;;;;;;;1.73;0.75;;;;;;;15.89;100.00;95390.31;1022517;28;20412;-77
2023/08/04 00:20:54;;;;;;;1.85;0.80;;;;;;;15.72;100.00;95364.56;1014963;29;20561;-75
2023/08/04 00:21:24;;;;;;;2.08;0.80;;;;;;;15.91;100.00;95393.44;1015100;29;20032;-74
2023/08/04 00:21:55;;;;;;;2.47;0.63;;;;;;;15.92;100.00;95395.00;1015163;29;20036;-76
2023/08/04 00:22:26;;;;;;;9.98;2.00;;;;;;;15.89;100.00;95404.31;1022927;28;20108;-76
2023/08/04 00:22:56;;;;;;;3.58;0.70;;;;;;;15.91;100.00;95398.75;1016146;29;20044;-77
2023/08/04 00:23:27;;;;;;;2.00;0.60;;;;;;;15.90;100.00;95402.47;1019341;29;20028;-74
2023/08/04 00:23:58;;;;;;;1.85;0.70;;;;;;;15.82;100.00;95389.97;1018958;29;20130;-76
2023/08/04 00:24:28;;;;;;;3.38;0.77;;;;;;;15.91;100.00;95406.69;1011053;29;20089;-77
2023/08/04 00:24:59;;;;;;;1.10;0.63;;;;;;;15.89;100.00;95406.19;1011158;29;20044;-75
2023/08/04 00:25:29;;;;;;;0.65;0.50;;;;;;;15.83;100.00;95402.13;1011482;29;20041;-75
2023/08/04 00:26:00;;;;;;;0.68;0.50;;;;;;;15.86;100.00;95404.16;1011565;29;20052;-77
2023/08/04 00:26:31;;;;;;;0.40;0.35;;;;;;;15.88;100.00;95409.94;1019074;29;20046;-75
2023/08/04 00:27:02;;;;;;;1.50;0.50;;;;;;;15.74;100.00;95384.34;1019732;28;20042;-76
2023/08/04 00:27:32;;;;;;;0.85;0.50;;;;;;;15.70;100.00;95388.69;1018933;29;20026;-75
2023/08/04 00:28:03;;;;;;;1.48;0.60;;;;;;;15.85;100.00;95405.25;1022943;28;20094;-76
2023/08/04 00:28:33;;;;;;;1.15;0.70;;;;;;;15.84;100.00;95406.34;1023068;28;20060;-74
2023/08/04 00:29:04;;;;;;;0.43;0.43;;;;;;;15.78;100.00;95403.81;1015082;29;20135;-75
2023/08/04 00:29:34;;;;;;;2.03;0.70;;;;;;;15.83;100.00;95408.22;1011208;29;20029;-76
2023/08/04 00:30:06;;;;;;;2.08;0.73;;;;;;;15.81;100.00;95405.06;1015191;29;20524;-73
2023/08/04 00:30:36;;;;;;;3.17;0.65;;;;;;;15.82;100.00;95408.50;1014532;29;20032;-74
2023/08/04 00:31:06;;;;;;;3.15;0.98;;;;;;;15.76;100.00;95398.06;1019237;29;20035;-75
2023/08/04 00:31:37;;;;;;;3.47;0.70;;;;;;;15.80;100.00;95406.16;1019236;29;20028;-75
2023/08/04 00:32:07;;;;;;;0.63;0.50;;;;;;;15.79;100.00;95400.09;1019129;29;20035;-74
2023/08/04 00:32:38;;;;;;;1.13;0.60;;;;;;;15.75;100.00;95396.47;1019105;29;20028;-76
2023/08/04 00:33:09;;;;;;;3.03;0.75;;;;;;;15.81;100.00;95404.31;1015125;29;20040;-75
2023/08/04 00:33:40;;;;;;;1.33;0.52;;;;;;;15.74;100.00;95400.22;1019471;29;20028;-76
2023/08/04 00:34:10;;;;;;;2.08;0.65;;;;;;;15.78;100.00;95411.75;1015500;29;20020;-77
2023/08/04 00:34:41;;;;;;;2.80;0.57;;;;;;;15.79;100.00;95407.22;1023099;29;20024;-76
2023/08/04 00:35:11;;;;;;;1.77;0.70;;;;;;;15.79;100.00;95407.22;1022724;29;20416;-75
2023/08/04 00:35:41;;;;;;;3.20;0.57;;;;;;;15.70;100.00;95403.78;1015345;29;20031;-75
2023/08/04 00:36:12;;;;;;;2.78;0.80;;;;;;;15.76;100.00;95408.66;1022990;28;20028;-75
2023/08/04 00:36:44;;;;;;;4.43;1.23;;;;;;;15.77;100.00;95404.13;1023069;29;20091;-76
2023/08/04 00:37:14;;;;;;;1.35;0.75;;;;;;;15.71;100.00;95402.69;1014931;29;20379;-75
2023/08/04 00:37:45;;;;;;;2.17;0.52;;;;;;;15.75;100.00;95409.72;1023147;29;20098;-76
2023/08/04 00:38:15;;;;;;;2.60;0.70;;;;;;;15.75;100.00;95412.34;1022881;29;20039;-75
2023/08/04 00:38:46;;;;;;;0.98;0.60;;;;;;;15.68;100.00;95396.13;1023111;29;20031;-76
2023/08/04 00:39:16;;;;;;;1.80;0.52;;;;;;;15.68;100.00;95393.50;1022800;29;20035;-76
2023/08/04 00:39:47;;;;;;;2.95;0.75;;;;;;;15.75;100.00;95406.28;1023179;29;20027;-76
2023/08/04 00:40:17;;;;;;;2.65;0.68;;;;;;;15.74;100.00;95410.81;1026791;28;20026;-74
2023/08/04 00:40:48;;;;;;;1.50;0.65;;;;;;;15.75;100.00;95409.72;1022479;29;20022;-76
2023/08/04 00:41:18;;;;;;;3.22;0.77;;;;;;;15.64;100.00;95383.81;1018819;29;20024;-74
2023/08/04 00:41:49;;;;;;;1.85;1.23;;;;;;;15.72;100.00;95405.03;1021644;29;20033;-75
2023/08/04 00:42:19;;;;;;;1.17;0.60;;;;;;;15.73;100.00;95403.19;1015079;29;20028;-75
2023/08/04 00:42:50;;;;;;;2.67;0.63;;;;;;;15.46;100.00;95367.03;1019036;29;20096;-75
2023/08/04 00:43:20;;;;;;;6.13;1.23;;;;;;;15.65;100.00;95394.06;1018665;29;20028;-76
2023/08/04 00:43:51;;;;;;;6.50;0.98;;;;;;;15.71;100.00;95402.69;1019085;29;20023;-75
2023/08/04 00:44:21;;;;;;;1.05;0.60;;;;;;;15.65;100.00;95396.72;1023044;29;20019;-75
2023/08/04 00:44:51;;;;;;;1.50;0.73;;;;;;;15.71;100.00;95400.81;1023033;29;20027;-74
2023/08/04 00:45:22;;;;;;;2.38;0.77;;;;;;;15.72;100.00;95397.09;1022827;29;20024;-76
2023/08/04 00:45:53;;;;;;;3.08;0.98;;;;;;;15.63;100.00;95393.59;1022935;28;20015;-75
2023/08/04 00:46:23;;;;;;;2.92;0.70;;;;;;;15.70;100.00;95401.13;1018978;29;20030;-76
2023/08/04 00:46:54;;;;;;;1.42;0.60;;;;;;;15.66;100.00;95393.03;1010993;29;20132;-78
2023/08/04 00:47:25;;;;;;;2.38;0.80;;;;;;;15.65;100.00;95388.00;1011140;29;20025;-75
2023/08/04 00:47:55;;;;;;;1.52;0.50;;;;;;;15.66;100.00;95397.47;1011139;29;20017;-74
2023/08/04 00:48:26;;;;;;;1.08;0.82;;;;;;;15.64;100.00;95389.88;1015988;29;20012;-74
2023/08/04 00:48:57;;;;;;;0.93;0.60;;;;;;;15.68;100.00;95401.44;1015016;29;20028;-75
2023/08/04 00:49:28;;;;;;;1.25;0.60;;;;;;;15.55;100.00;95387.16;1011036;29;20048;-75
2023/08/04 00:49:58;;;;;;;1.73;0.82;;;;;;;15.64;100.00;95405.72;1011239;29;20020;-74
2023/08/04 00:50:29;;;;;;;2.60;0.77;;;;;;;15.62;100.00;95401.81;1010558;29;20012;-76
2023/08/04 00:50:59;;;;;;;5.32;0.93;;;;;;;15.65;100.00;95406.50;1014953;29;20561;-75
2023/08/04 00:51:33;;;;;;;2.38;0.85;;;;;;;15.63;100.00;95408.69;1015160;29;20032;-77
2023/08/04 00:52:04;;;;;;;1.85;0.90;;;;;;;15.60;100.00;95404.78;1017770;29;20516;-75
2023/08/04 00:52:36;;;;;;;1.35;0.90;;;;;;;15.65;100.00;95412.56;1015031;29;20099;-76
2023/08/04 00:53:07;;;;;;;1.85;0.77;;;;;;;15.65;100.00;95419.75;1011071;29;20029;-75
2023/08/04 00:53:38;;;;;;;2.30;0.65;;;;;;;15.59;100.00;95407.72;1016763;29;20403;-75
2023/08/04 00:54:09;;;;;;;4.38;1.17;;;;;;;15.62;100.00;95423.75;1026908;28;20023;-74
2023/08/04 00:54:39;;;;;;;1.45;0.73;;;;;;;15.57;100.00;95418.59;1018996;29;20031;-76
2023/08/04 00:55:09;;;;;;;3.22;0.80;;;;;;;15.56;100.00;95414.41;1018309;29;20482;-74
2023/08/04 00:55:41;;;;;;;1.83;0.80;;;;;;;15.60;100.00;95419.88;1015433;29;20083;-75
2023/08/04 00:56:12;;;;;;;3.08;0.93;;;;;;;15.56;100.00;95417.06;1022782;29;20023;-74
2023/08/04 00:56:42;;;;;;;1.95;0.70;;;;;;;15.56;100.00;95420.47;1015176;29;20016;-74
2023/08/04 00:57:13;;;;;;;2.33;0.63;;;;;;;15.58;100.00;95420.16;1015504;29;20079;-77
2023/08/04 00:57:43;;;;;;;0.90;0.70;;;;;;;15.58;100.00;95420.16;1015069;29;20013;-77
2023/08/04 00:58:14;;;;;;;2.05;0.80;;;;;;;15.53;100.00;95412.38;1010902;29;20728;-74
2023/08/04 00:58:44;;;;;;;1.65;0.55;;;;;;;15.39;100.00;95391.28;1012997;29;20022;-75
2023/08/04 00:59:15;;;;;;;3.25;1.10;;;;;;;15.56;100.00;95417.84;1018823;29;20039;-77
2023/08/04 00:59:45;;;;;;;2.15;0.68;;;;;;;15.57;100.00;95418.59;1019109;29;20043;-75
2023/08/04 01:00:16;;;;;;;1.15;0.70;;;;;;;15.54;100.00;95421.84;1022942;28;20031;-75
2023/08/04 01:00:46;;;;;;;2.90;0.90;;;;;;;15.55;100.00;95420.75;1018307;29;20109;-76
2023/08/04 01:01:16;;;;;;;2.72;0.85;;;;;;;15.55;100.00;95412.81;1022767;29;20039;-75
2023/08/04 01:01:48;;;;;;;3.45;1.20;;;;;;;15.55;100.00;95413.59;1022923;28;20031;-75
2023/08/04 01:02:18;;;;;;;1.20;0.60;;;;;;;15.51;100.00;95414.53;1018721;28;20039;-75
2023/08/04 01:02:49;;;;;;;0.70;0.70;;;;;;;15.52;100.00;95418.72;1015089;29;20095;-75
2023/08/04 01:03:19;;;;;;;1.92;0.80;;;;;;;15.45;100.00;95415.72;1018901;29;20085;-74
2023/08/04 01:03:51;;;;;;;2.30;0.85;;;;;;;15.44;100.00;95406.22;1016604;29;20027;-74
2023/08/04 01:04:22;;;;;;;1.23;0.80;;;;;;;15.51;100.00;95417.16;1022787;29;20481;-75
2023/08/04 01:04:52;;;;;;;2.38;0.75;;;;;;;15.50;100.00;95421.69;1022918;29;20039;-76
2023/08/04 01:05:24;;;;;;;2.53;0.68;;;;;;;15.44;100.00;95416.81;1022807;28;20115;-74
2023/08/04 01:06:04;;;;;;;2.15;1.08;;;;;;;15.39;100.00;95408.97;1018952;29;20024;-74
2023/08/04 01:06:59;;;;;;;;;;;;;;;15.48;100.00;95420.41;1019262;28;20020;-75
2023/08/04 01:07:32;;;;;;;2.15;0.70;;;;;;;15.48;100.00;95423.06;1014587;28;19994;-76
2023/08/04 01:08:13;;;;;;;4.00;0.73;;;;;;;15.39;100.00;95415.09;1021392;29;20031;-75
2023/08/04 01:08:51;;;;;;;3.95;0.95;;;;;;;15.45;100.00;95426.28;1014928;29;20024;-74
2023/08/04 01:09:36;;;;;;;4.50;1.15;;;;;;;15.43;100.00;95418.69;1016276;29;20028;-76
2023/08/04 01:10:22;;;;;;;5.40;0.98;;;;;;;15.42;100.00;95426.91;1018882;29;20592;-76
2023/08/04 01:11:03;;;;;;;1.25;0.60;;;;;;;15.41;100.00;95428.75;1019079;29;20039;-78
2023/08/04 01:11:40;;;;;;;4.25;0.80;;;;;;;14.86;100.00;95349.69;1022863;29;20019;-77
2023/08/04 01:12:41;;;;;;;4.10;1.15;;;;;;;15.40;100.00;95427.22;1018936;29;20050;-75
2023/08/04 01:13:13;;;;;;;1.30;0.55;;;;;;;15.35;100.00;95427.31;1021012;29;20091;-74
2023/08/04 01:13:43;;;;;;;3.78;0.90;;;;;;;15.37;100.00;95427.81;1023230;28;20018;-76
2023/08/04 01:14:14;;;;;;;3.83;0.80;;;;;;;15.31;100.00;95424.50;1022734;29;20098;-76
2023/08/04 01:14:47;;;;;;;1.25;0.60;;;;;;;15.28;100.00;95427.72;1022246;28;20019;-76
2023/08/04 01:15:17;;;;;;;2.63;0.85;;;;;;;15.24;100.00;95423.34;1018797;29;20107;-75
2023/08/04 01:15:49;;;;;;;1.02;0.60;;;;;;;15.33;100.00;95432.13;1018770;29;20026;-76
2023/08/04 01:16:19;;;;;;;4.03;1.20;;;;;;;15.29;100.00;95426.66;1014885;29;20118;-77
2023/08/04 01:16:50;;;;;;;2.90;1.15;;;;;;;15.24;100.00;95418.84;1014999;29;20024;-76
2023/08/04 01:17:27;;;;;;;1.95;0.75;;;;;;;15.33;100.00;95432.91;1022663;29;20833;-76
2023/08/04 01:17:57;;;;;;;4.05;0.85;;;;;;;15.30;100.00;95428.22;1020755;29;20032;-76
2023/08/04 01:18:28;;;;;;;3.05;0.68;;;;;;;15.28;100.00;95427.72;1018791;29;20489;-76
2023/08/04 01:18:59;;;;;;;3.25;0.93;;;;;;;15.26;100.00;95421.19;1018709;29;20039;-77
2023/08/04 01:19:29;;;;;;;3.55;0.90;;;;;;;15.24;100.00;95421.50;1014759;29;20100;-76
2023/08/04 01:20:00;;;;;;;1.20;0.50;;;;;;;15.31;100.00;95432.41;1018759;29;20042;-76
2023/08/04 01:20:30;;;;;;;3.30;0.70;;;;;;;15.24;100.00;95426.78;1022287;29;20023;-77
2023/08/04 01:21:02;;;;;;;1.42;0.70;;;;;;;15.32;100.00;95436.66;1022598;29;20035;-76
2023/08/04 01:21:40;;;;;;;1.60;0.60;;;;;;;15.28;100.00;95429.59;1022621;29;20039;-74
2023/08/04 01:22:10;;;;;;;4.68;0.77;;;;;;;15.23;100.00;95417.28;1026746;28;20037;-75
2023/08/04 01:22:41;;;;;;;1.95;0.70;;;;;;;15.28;100.00;95425.09;1011067;29;20028;-73
2023/08/04 01:23:12;;;;;;;0.73;0.63;;;;;;;15.32;100.00;95439.28;1013786;29;20028;-78
2023/08/04 01:23:42;;;;;;;0.85;0.60;;;;;;;15.25;100.00;95430.97;1018792;29;20028;-77
2023/08/04 01:24:12;;;;;;;2.13;0.70;;;;;;;15.28;100.00;95433.03;1018769;29;20028;-74
2023/08/04 01:24:43;;;;;;;1.70;0.80;;;;;;;15.23;100.00;95430.50;1018696;29;20035;-77
2023/08/04 01:25:13;;;;;;;2.70;0.90;;;;;;;15.30;100.00;95438.81;1022637;29;20725;-76
2023/08/04 01:25:44;;;;;;;2.20;0.77;;;;;;;15.30;100.00;95441.44;1026701;28;20019;-75
2023/08/04 01:26:14;;;;;;;3.22;0.80;;;;;;;15.28;100.00;95433.03;1010774;29;20025;-77
2023/08/04 01:26:45;;;;;;;4.13;0.73;;;;;;;15.30;100.00;95443.31;1018842;29;20026;-75
2023/08/04 01:27:21;;;;;;;5.28;0.80;;;;;;;15.17;100.00;95423.75;1022627;29;20082;-75
2023/08/04 01:27:55;;;;;;;3.78;1.00;;;;;;;15.26;100.00;95437.84;1014777;29;20024;-77
2023/08/04 01:28:25;;;;;;;2.22;0.70;;;;;;;15.23;100.00;95427.88;1014893;29;20020;-75
2023/08/04 01:28:56;;;;;;;5.25;1.40;;;;;;;15.26;100.00;95437.84;1018636;29;20019;-74
2023/08/04 01:29:26;;;;;;;1.67;0.70;;;;;;;15.22;100.00;95428.16;1014874;29;20086;-76
2023/08/04 01:29:58;;;;;;;2.65;1.10;;;;;;;15.23;100.00;95425.22;1025341;28;20023;-74
2023/08/04 01:30:28;;;;;;;2.90;0.80;;;;;;;15.25;100.00;95430.97;1022314;29;20047;-75
2023/08/04 01:30:59;;;;;;;0.70;0.60;;;;;;;15.25;100.00;95430.97;1018618;29;20020;-77
2023/08/04 01:31:29;;;;;;;3.30;0.90;;;;;;;15.20;100.00;95425.81;1020256;28;20035;-76
2023/08/04 01:32:00;;;;;;;1.67;0.60;;;;;;;15.17;100.00;95418.47;1014795;29;20036;-76
2023/08/04 01:32:30;;;;;;;1.27;0.70;;;;;;;15.24;100.00;95426.00;1018677;29;20577;-76
2023/08/04 01:33:01;;;;;;;3.33;0.80;;;;;;;15.22;100.00;95431.56;1018407;29;20046;-75
2023/08/04 01:33:31;;;;;;;3.80;1.00;;;;;;;15.10;100.00;95412.84;1014671;29;20131;-75
2023/08/04 01:34:02;;;;;;;1.05;0.70;;;;;;;15.23;100.00;95427.88;1018685;29;20034;-77
2023/08/04 01:34:33;;;;;;;2.28;0.63;;;;;;;15.17;100.00;95421.13;1018555;29;20139;-76
2023/08/04 01:35:06;;;;;;;2.08;0.80;;;;;;;15.23;100.00;95433.16;1006915;29;20032;-75
2023/08/04 01:35:39;;;;;;;3.42;0.80;;;;;;;15.23;100.00;95430.50;1010828;29;20116;-77
2023/08/04 01:36:10;;;;;;;1.20;0.80;;;;;;;15.22;100.00;95428.16;1014582;29;20035;-75
2023/08/04 01:36:40;;;;;;;3.10;0.70;;;;;;;15.22;100.00;95428.91;1018081;28;20023;-74
2023/08/04 01:37:11;;;;;;;3.80;0.90;;;;;;;15.21;100.00;95429.22;1018374;29;20035;-76
2023/08/04 01:37:43;;;;;;;4.20;1.10;;;;;;;15.18;100.00;95422.69;1015005;29;20798;-76
2023/08/04 01:38:13;;;;;;;6.72;1.23;;;;;;;15.14;100.00;95420.94;1015772;29;20024;-76
2023/08/04 01:38:44;;;;;;;2.15;1.15;;;;;;;15.18;100.00;95427.97;1014976;29;20032;-75
2023/08/04 01:39:14;;;;;;;3.97;0.68;;;;;;;15.05;100.00;95407.66;1022604;28;20931;-74
2023/08/04 01:39:45;;;;;;;2.25;0.90;;;;;;;15.18;100.00;95432.47;1022642;29;20035;-75
2023/08/04 01:40:15;;;;;;;2.53;0.80;;;;;;;15.15;100.00;95431.19;1014992;29;20102;-76
2023/08/04 01:40:46;;;;;;;4.68;1.33;;;;;;;15.09;100.00;95416.56;1018142;29;20032;-75
2023/08/04 01:41:16;;;;;;;1.85;0.55;;;;;;;15.19;100.00;95431.38;1014761;29;20091;-77
2023/08/04 01:41:47;;;;;;;1.67;0.82;;;;;;;15.19;100.00;95437.47;1020731;28;20556;-77
2023/08/04 01:42:17;;;;;;;2.05;0.85;;;;;;;15.08;100.00;95415.75;1022814;29;20047;-75
2023/08/04 01:42:48;;;;;;;2.05;0.80;;;;;;;15.12;100.00;95423.09;1018870;29;20039;-78
2023/08/04 01:43:21;;;;;;;1.45;0.90;;;;;;;15.07;100.00;95410.78;1022504;29;20057;-74
2023/08/04 01:43:51;;;;;;;1.42;0.70;;;;;;;15.18;100.00;95430.59;1010825;29;20107;-75
2023/08/04 01:44:22;;;;;;;3.63;0.85;;;;;;;15.19;100.00;95426.91;1009854;29;20024;-77
2023/08/04 01:44:52;;;;;;;1.35;0.80;;;;;;;15.12;100.00;95415.94;1022909;28;20035;-76
2023/08/04 01:45:23;;;;;;;3.05;0.70;;;;;;;15.11;100.00;95414.38;1018711;29;20035;-76
2023/08/04 01:45:53;;;;;;;3.50;0.68;;;;;;;15.14;100.00;95429.66;1014731;29;20040;-76
2023/08/04 01:46:24;;;;;;;2.92;0.93;;;;;;;15.16;100.00;95422.22;1014927;29;20039;-75
2023/08/04 01:46:54;;;;;;;2.33;0.63;;;;;;;15.15;100.00;95419.84;1018608;29;20098;-75
2023/08/04 01:47:24;;;;;;;1.73;0.80;;;;;;;15.17;100.00;95418.47;1018994;29;20082;-74
2023/08/04 01:47:55;;;;;;;2.15;0.80;;;;;;;15.10;100.00;95407.53;1018923;29;20044;-76
2023/08/04 01:48:26;;;;;;;2.70;0.70;;;;;;;15.17;100.00;95423.00;1020323;28;20426;-74
2023/08/04 01:48:57;;;;;;;3.70;1.08;;;;;;;15.15;100.00;95414.56;1019073;29;20035;-76
2023/08/04 01:49:27;;;;;;;1.48;0.88;;;;;;;15.14;100.00;95413.78;1023249;28;20035;-77
2023/08/04 01:49:58;;;;;;;2.55;0.80;;;;;;;15.12;100.00;95409.88;1023025;29;20034;-76
2023/08/04 01:50:28;;;;;;;1.98;0.68;;;;;;;15.04;100.00;95393.66;1018703;29;20044;-76
2023/08/04 01:50:58;;;;;;;1.13;0.60;;;;;;;15.12;100.00;95405.38;1014935;29;20729;-76
2023/08/04 01:51:29;;;;;;;2.47;1.00;;;;;;;15.11;100.00;95409.09;1015171;29;20647;-76
2023/08/04 01:51:59;;;;;;;2.00;1.00;;;;;;;15.07;100.00;95395.69;1018640;29;20035;-75
2023/08/04 01:52:30;;;;;;;1.48;0.90;;;;;;;15.05;100.00;95391.78;1011362;29;20024;-76
2023/08/04 01:53:01;;;;;;;1.48;0.77;;;;;;;15.12;100.00;95397.44;1014896;29;20040;-75
2023/08/04 01:53:31;;;;;;;2.35;1.00;;;;;;;15.10;100.00;95396.97;1014773;29;20526;-76
2023/08/04 01:54:02;;;;;;;4.15;1.20;;;;;;;14.98;100.00;95373.72;1015045;29;20028;-76
2023/08/04 01:54:32;;;;;;;2.80;0.85;;;;;;;15.07;100.00;95393.06;1019031;29;20059;-77
2023/08/04 01:55:03;;;;;;;2.30;0.80;;;;;;;15.05;100.00;95392.56;1022672;28;20035;-75
2023/08/04 01:55:33;;;;;;;2.78;0.90;;;;;;;15.07;100.00;95392.28;1015024;29;20024;-75
2023/08/04 01:56:04;;;;;;;1.95;0.75;;;;;;;14.96;100.00;95378.53;1020571;29;20027;-75
2023/08/04 01:56:34;;;;;;;2.63;1.00;;;;;;;15.00;100.00;95384.00;1018411;29;20028;-76
2023/08/04 01:57:05;;;;;;;0.68;0.60;;;;;;;15.02;100.00;95395.03;1014685;29;20028;-76
2023/08/04 01:57:38;;;;;;;3.17;1.17;;;;;;;14.97;100.00;95381.94;1018674;29;20079;-75
2023/08/04 01:58:09;;;;;;;1.23;0.73;;;;;;;15.07;100.00;95392.28;1018654;29;20579;-77
2023/08/04 01:58:39;;;;;;;2.72;0.80;;;;;;;15.01;100.00;95393.47;1018435;29;20048;-77
2023/08/04 01:59:09;;;;;;;7.25;1.27;;;;;;;15.05;100.00;95395.22;1014816;29;20036;-77
2023/08/04 01:59:40;;;;;;;1.98;0.60;;;;;;;15.08;100.00;95399.13;1014682;29;20359;-75
2023/08/04 02:00:13;;;;;;;2.88;0.80;;;;;;;15.06;100.00;95390.72;1018807;29;20020;-75
2023/08/04 02:00:43;;;;;;;0.80;0.70;;;;;;;14.99;100.00;95385.06;1017914;28;20023;-75
2023/08/04 02:01:14;;;;;;;2.08;0.73;;;;;;;14.97;100.00;95381.94;1018641;28;20027;-75
2023/08/04 02:01:44;;;;;;;4.63;1.10;;;;;;;14.99;100.00;95385.84;1018665;28;20139;-75
2023/08/04 02:02:15;;;;;;;1.98;0.90;;;;;;;14.91;100.00;95372.56;1018429;29;20050;-75
2023/08/04 02:02:45;;;;;;;1.55;0.75;;;;;;;14.95;100.00;95384.09;1018569;28;20039;-75
2023/08/04 02:03:16;;;;;;;1.15;0.65;;;;;;;15.03;100.00;95391.31;1022509;28;20030;-76
2023/08/04 02:03:46;;;;;;;2.13;0.95;;;;;;;15.02;100.00;95385.25;1019922;29;20020;-75
2023/08/04 02:04:17;;;;;;;1.85;0.80;;;;;;;14.99;100.00;95385.84;1018556;29;20015;-76
2023/08/04 02:04:47;;;;;;;2.42;0.75;;;;;;;14.94;100.00;95374.63;1018645;29;20083;-77
2023/08/04 02:05:18;;;;;;;1.65;0.80;;;;;;;15.00;100.00;95386.63;1014907;29;20032;-77
2023/08/04 02:05:48;;;;;;;1.45;0.80;;;;;;;15.02;100.00;95390.56;1010977;29;20032;-77
2023/08/04 02:06:19;;;;;;;2.13;0.80;;;;;;;15.01;100.00;95388.97;1014905;29;20558;-75
2023/08/04 02:06:49;;;;;;;2.97;1.27;;;;;;;15.02;100.00;95387.09;1018847;29;20024;-77
2023/08/04 02:07:20;;;;;;;3.90;0.90;;;;;;;14.93;100.00;95384.41;1023531;28;20085;-77
2023/08/04 02:07:50;;;;;;;3.50;0.82;;;;;;;15.01;100.00;95388.19;1018046;29;20020;-75
2023/08/04 02:08:21;;;;;;;1.58;0.82;;;;;;;15.02;100.00;95395.03;1017838;29;20032;-78
2023/08/04 02:08:51;;;;;;;3.85;0.88;;;;;;;15.01;100.00;95385.53;1018534;29;20040;-77
2023/08/04 02:09:22;;;;;;;4.25;0.88;;;;;;;15.02;100.00;95384.47;1022617;28;20466;-75
2023/08/04 02:09:53;;;;;;;1.30;0.70;;;;;;;15.01;100.00;95385.53;1022937;28;20050;-74
2023/08/04 02:10:23;;;;;;;2.03;0.70;;;;;;;14.94;100.00;95374.63;1026026;28;20027;-76
2023/08/04 02:10:54;;;;;;;1.80;0.68;;;;;;;14.97;100.00;95376.66;1022194;28;20027;-76
2023/08/04 02:11:24;;;;;;;1.77;0.90;;;;;;;14.99;100.00;95385.06;1014687;29;20569;-76
2023/08/04 02:11:55;;;;;;;1.98;0.80;;;;;;;14.92;100.00;95376.75;1018528;29;20027;-75
2023/08/04 02:12:25;;;;;;;3.45;0.70;;;;;;;14.98;100.00;95383.50;1014827;29;20038;-76
2023/08/04 02:12:56;;;;;;;4.00;0.90;;;;;;;14.98;100.00;95386.16;1025069;28;20572;-75
2023/08/04 02:13:26;;;;;;;2.92;0.70;;;;;;;14.92;100.00;95380.19;1022790;29;20031;-76
2023/08/04 02:14:00;;;;;;;1.58;0.73;;;;;;;14.99;100.00;95387.69;1022634;29;20042;-75
2023/08/04 02:14:30;;;;;;;4.28;0.60;;;;;;;14.88;100.00;95373.94;1020948;29;20039;-75
2023/08/04 02:15:01;;;;;;;1.33;0.80;;;;;;;14.95;100.00;95386.75;1014690;29;20099;-75
2023/08/04 02:15:31;;;;;;;3.60;0.85;;;;;;;14.93;100.00;95391.56;1014709;29;20028;-75
2023/08/04 02:16:02;;;;;;;1.40;0.70;;;;;;;14.85;100.00;95379.81;1011391;29;20024;-76
2023/08/04 02:16:33;;;;;;;2.03;0.70;;;;;;;14.77;100.00;95373.38;1014700;29;20032;-74
2023/08/04 02:17:03;;;;;;;2.45;0.80;;;;;;;14.85;100.00;95385.09;1014759;29;20032;-77
2023/08/04 02:17:34;;;;;;;0.70;0.50;;;;;;;14.87;100.00;95387.47;1014664;29;20189;-75
2023/08/04 02:18:05;;;;;;;1.48;0.63;;;;;;;14.90;100.00;95392.16;1013836;29;20016;-76
2023/08/04 02:18:35;;;;;;;2.78;0.90;;;;;;;14.90;100.00;95392.16;1018555;29;20039;-76
2023/08/04 02:19:08;;;;;;;3.55;0.90;;;;;;;14.87;100.00;95390.09;1014693;29;20035;-76
2023/08/04 02:19:38;;;;;;;3.50;0.70;;;;;;;14.91;100.00;95388.41;1008608;29;20117;-75
2023/08/04 02:20:09;;;;;;;0.85;0.68;;;;;;;14.90;100.00;95392.16;1007444;29;20033;-76
2023/08/04 02:20:39;;;;;;;3.50;0.75;;;;;;;14.80;100.00;95367.50;1010411;29;20037;-77
2023/08/04 02:21:10;;;;;;;3.50;0.70;;;;;;;14.84;100.00;95384.31;1015552;28;20430;-75
2023/08/04 02:21:40;;;;;;;2.60;1.33;;;;;;;14.89;100.00;95390.56;1022763;28;20026;-74
2023/08/04 02:22:11;;;;;;;3.45;0.98;;;;;;;14.80;100.00;95387.88;1022912;29;20028;-74
2023/08/04 02:22:41;;;;;;;4.38;0.60;;;;;;;14.89;100.00;95395.84;1018125;29;20409;-74
2023/08/04 02:23:12;;;;;;;2.55;0.88;;;;;;;14.88;100.00;95383.72;1025376;28;20022;-74
2023/08/04 02:23:42;;;;;;;3.00;0.85;;;;;;;14.88;100.00;95389.00;1022889;29;20031;-76
2023/08/04 02:24:13;;;;;;;2.13;0.93;;;;;;;14.88;100.00;95399.56;1019138;28;20028;-74
2023/08/04 02:24:43;;;;;;;1.90;0.73;;;;;;;14.87;100.00;95385.59;1018998;29;20445;-75
2023/08/04 02:25:13;;;;;;;1.83;0.85;;;;;;;14.88;100.00;95389.00;1018742;29;20024;-76